ZBAA/PEK METAR and TAF weather

Enter ICAO airport designator
Station Type Date Time Source
ZBAA METAR 2019/02/17 07:30 UTC NOAA

ZBAA 170730Z 36003MPS 290V030 CAVOK 07/M22 Q1026 NOSIG


Station Type Date Time Source
ZBAA Decoded METAR 2019/02/17 07:30 UTC NOAA

Beijing, China (ZBAA) 39-56N 116-17E 55M
Feb 17, 2019 - 02:30 AM EST / 2019.02.17 0730 UTC
Wind: from the N (360 degrees) at 7 MPH (6 KT) (direction variable):0
Visibility: greater than 7 mile(s):0
Temperature: 44 F (7 C)
Dew Point: -7 F (-22 C)
Relative Humidity: 10%
Pressure (altimeter): 30.30 in. Hg (1026 hPa)
ob: ZBAA 170730Z 36003MPS 290V030 CAVOK 07/M22 Q1026 NOSIG
cycle: 7

Station Type Date Time Source
ZBAA TAF 2019/02/17 06:03 UTC NOAA

TAF TAF ZBAA 170330Z 1706/1806 02004MPS CAVOK TX04/1707Z TNM06/21Z


Example: see airport list